sensor_id;sensor_type;location;lat;lon;timestamp;P1;durP1;ratioP1;P2;durP2;ratioP2
8159;SDS011;27404;52.398;9.646;2023-11-19T00:00:21;1.20;;;1.00;;
8159;SDS011;27404;52.398;9.646;2023-11-19T00:02:47;2.70;;;1.00;;
8159;SDS011;27404;52.398;9.646;2023-11-19T00:05:12;1.40;;;1.00;;
8159;SDS011;27404;52.398;9.646;2023-11-19T00:07:38;1.57;;;1.10;;
8159;SDS011;27404;52.398;9.646;2023-11-19T00:10:08;2.13;;;1.10;;
8159;SDS011;27404;52.398;9.646;2023-11-19T00:12:35;2.27;;;1.10;;
8159;SDS011;27404;52.398;9.646;2023-11-19T00:15:05;1.67;;;1.00;;
8159;SDS011;27404;52.398;9.646;2023-11-19T00:17:31;1.87;;;1.37;;
8159;SDS011;27404;52.398;9.646;2023-11-19T00:19:57;3.87;;;1.30;;
8159;SDS011;27404;52.398;9.646;2023-11-19T00:22:22;1.30;;;1.10;;
8159;SDS011;27404;52.398;9.646;2023-11-19T00:24:48;1.50;;;1.00;;
8159;SDS011;27404;52.398;9.646;2023-11-19T00:27:13;2.23;;;1.20;;
8159;SDS011;27404;52.398;9.646;2023-11-19T00:29:39;2.43;;;1.30;;
8159;SDS011;27404;52.398;9.646;2023-11-19T00:32:05;4.57;;;1.40;;
8159;SDS011;27404;52.398;9.646;2023-11-19T00:34:32;1.80;;;1.13;;
8159;SDS011;27404;52.398;9.646;2023-11-19T00:36:58;1.90;;;1.30;;
8159;SDS011;27404;52.398;9.646;2023-11-19T00:39:23;1.80;;;1.20;;
8159;SDS011;27404;52.398;9.646;2023-11-19T00:41:49;1.30;;;1.00;;
8159;SDS011;27404;52.398;9.646;2023-11-19T00:44:14;2.80;;;1.20;;
8159;SDS011;27404;52.398;9.646;2023-11-19T00:46:40;1.77;;;1.20;;
8159;SDS011;27404;52.398;9.646;2023-11-19T00:49:05;1.60;;;1.40;;
8159;SDS011;27404;52.398;9.646;2023-11-19T00:51:31;1.63;;;1.20;;
8159;SDS011;27404;52.398;9.646;2023-11-19T00:53:56;1.17;;;1.00;;
8159;SDS011;27404;52.398;9.646;2023-11-19T00:56:22;1.50;;;1.20;;
8159;SDS011;27404;52.398;9.646;2023-11-19T00:58:49;1.90;;;1.30;;
8159;SDS011;27404;52.398;9.646;2023-11-19T01:01:14;1.67;;;1.10;;
8159;SDS011;27404;52.398;9.646;2023-11-19T01:03:40;2.03;;;1.30;;
8159;SDS011;27404;52.398;9.646;2023-11-19T01:06:05;1.57;;;1.00;;
8159;SDS011;27404;52.398;9.646;2023-11-19T01:08:31;1.53;;;1.13;;
8159;SDS011;27404;52.398;9.646;2023-11-19T01:10:56;1.50;;;1.30;;
8159;SDS011;27404;52.398;9.646;2023-11-19T01:13:22;1.50;;;1.00;;
8159;SDS011;27404;52.398;9.646;2023-11-19T01:15:47;1.53;;;1.20;;
8159;SDS011;27404;52.398;9.646;2023-11-19T01:18:13;1.10;;;1.00;;
8159;SDS011;27404;52.398;9.646;2023-11-19T01:20:38;1.63;;;1.10;;
8159;SDS011;27404;52.398;9.646;2023-11-19T01:23:04;1.87;;;0.97;;
8159;SDS011;27404;52.398;9.646;2023-11-19T01:25:30;1.87;;;1.07;;
8159;SDS011;27404;52.398;9.646;2023-11-19T01:27:55;1.60;;;1.00;;
8159;SDS011;27404;52.398;9.646;2023-11-19T01:30:23;4.13;;;0.80;;
8159;SDS011;27404;52.398;9.646;2023-11-19T01:32:49;1.43;;;0.97;;
8159;SDS011;27404;52.398;9.646;2023-11-19T01:35:15;1.30;;;0.90;;
8159;SDS011;27404;52.398;9.646;2023-11-19T01:37:40;1.20;;;0.90;;
8159;SDS011;27404;52.398;9.646;2023-11-19T01:40:06;1.03;;;0.70;;
8159;SDS011;27404;52.398;9.646;2023-11-19T01:42:39;1.87;;;0.70;;
8159;SDS011;27404;52.398;9.646;2023-11-19T01:45:06;1.63;;;0.60;;
8159;SDS011;27404;52.398;9.646;2023-11-19T01:47:35;0.67;;;0.50;;
8159;SDS011;27404;52.398;9.646;2023-11-19T01:50:04;1.40;;;0.67;;
8159;SDS011;27404;52.398;9.646;2023-11-19T01:52:34;1.30;;;0.67;;
8159;SDS011;27404;52.398;9.646;2023-11-19T01:55:03;1.37;;;0.70;;
8159;SDS011;27404;52.398;9.646;2023-11-19T01:57:30;1.30;;;0.67;;
8159;SDS011;27404;52.398;9.646;2023-11-19T01:59:55;1.20;;;0.80;;
8159;SDS011;27404;52.398;9.646;2023-11-19T02:02:21;2.90;;;0.70;;
8159;SDS011;27404;52.398;9.646;2023-11-19T02:04:50;1.63;;;0.70;;
8159;SDS011;27404;52.398;9.646;2023-11-19T02:07:17;1.77;;;0.50;;
8159;SDS011;27404;52.398;9.646;2023-11-19T02:09:43;0.83;;;0.60;;
8159;SDS011;27404;52.398;9.646;2023-11-19T02:12:09;2.73;;;0.70;;
8159;SDS011;27404;52.398;9.646;2023-11-19T02:14:37;1.20;;;0.40;;
8159;SDS011;27404;52.398;9.646;2023-11-19T02:17:02;1.43;;;0.40;;
8159;SDS011;27404;52.398;9.646;2023-11-19T02:19:28;1.23;;;0.70;;
8159;SDS011;27404;52.398;9.646;2023-11-19T02:21:54;0.93;;;0.50;;
8159;SDS011;27404;52.398;9.646;2023-11-19T02:24:21;0.47;;;0.40;;
8159;SDS011;27404;52.398;9.646;2023-11-19T02:29:35;1.60;;;0.63;;
8159;SDS011;27404;52.398;9.646;2023-11-19T02:32:01;0.70;;;0.50;;
8159;SDS011;27404;52.398;9.646;2023-11-19T02:34:27;0.73;;;0.50;;
8159;SDS011;27404;52.398;9.646;2023-11-19T02:36:52;2.13;;;0.60;;
8159;SDS011;27404;52.398;9.646;2023-11-19T02:39:18;0.80;;;0.50;;
8159;SDS011;27404;52.398;9.646;2023-11-19T02:41:46;0.70;;;0.43;;
8159;SDS011;27404;52.398;9.646;2023-11-19T02:44:15;0.87;;;0.50;;
8159;SDS011;27404;52.398;9.646;2023-11-19T02:46:41;1.10;;;0.40;;
8159;SDS011;27404;52.398;9.646;2023-11-19T02:49:07;0.60;;;0.40;;
8159;SDS011;27404;52.398;9.646;2023-11-19T02:51:33;0.57;;;0.40;;
8159;SDS011;27404;52.398;9.646;2023-11-19T02:53:59;0.97;;;0.50;;
8159;SDS011;27404;52.398;9.646;2023-11-19T02:56:25;0.60;;;0.40;;
8159;SDS011;27404;52.398;9.646;2023-11-19T02:58:51;1.73;;;0.53;;
8159;SDS011;27404;52.398;9.646;2023-11-19T03:01:24;2.60;;;0.60;;
8159;SDS011;27404;52.398;9.646;2023-11-19T03:03:58;1.17;;;0.83;;
8159;SDS011;27404;52.398;9.646;2023-11-19T03:06:26;1.00;;;0.70;;
8159;SDS011;27404;52.398;9.646;2023-11-19T03:08:52;0.97;;;0.70;;
8159;SDS011;27404;52.398;9.646;2023-11-19T03:11:18;1.57;;;1.00;;
8159;SDS011;27404;52.398;9.646;2023-11-19T03:13:43;1.37;;;1.00;;
8159;SDS011;27404;52.398;9.646;2023-11-19T03:16:09;2.77;;;1.10;;
8159;SDS011;27404;52.398;9.646;2023-11-19T03:18:36;1.23;;;0.80;;
8159;SDS011;27404;52.398;9.646;2023-11-19T03:21:02;2.73;;;1.20;;
8159;SDS011;27404;52.398;9.646;2023-11-19T03:23:28;1.40;;;1.00;;
8159;SDS011;27404;52.398;9.646;2023-11-19T03:25:53;1.93;;;1.30;;
8159;SDS011;27404;52.398;9.646;2023-11-19T03:28:19;1.37;;;1.10;;
8159;SDS011;27404;52.398;9.646;2023-11-19T03:30:45;2.13;;;1.37;;
8159;SDS011;27404;52.398;9.646;2023-11-19T03:33:10;1.73;;;1.37;;
8159;SDS011;27404;52.398;9.646;2023-11-19T03:35:36;3.27;;;1.57;;
8159;SDS011;27404;52.398;9.646;2023-11-19T03:38:01;1.40;;;1.20;;
8159;SDS011;27404;52.398;9.646;2023-11-19T03:40:27;2.87;;;1.20;;
8159;SDS011;27404;52.398;9.646;2023-11-19T03:42:54;1.70;;;1.20;;
8159;SDS011;27404;52.398;9.646;2023-11-19T03:45:21;1.40;;;1.20;;
8159;SDS011;27404;52.398;9.646;2023-11-19T03:47:46;2.47;;;1.20;;
8159;SDS011;27404;52.398;9.646;2023-11-19T03:50:12;1.63;;;1.10;;
8159;SDS011;27404;52.398;9.646;2023-11-19T03:52:37;1.90;;;1.57;;
8159;SDS011;27404;52.398;9.646;2023-11-19T03:55:03;1.80;;;1.23;;
8159;SDS011;27404;52.398;9.646;2023-11-19T03:57:30;1.60;;;1.27;;
8159;SDS011;27404;52.398;9.646;2023-11-19T03:59:56;2.07;;;1.70;;
8159;SDS011;27404;52.398;9.646;2023-11-19T04:02:23;2.07;;;1.40;;
8159;SDS011;27404;52.398;9.646;2023-11-19T04:04:52;3.10;;;1.60;;
8159;SDS011;27404;52.398;9.646;2023-11-19T04:07:19;2.80;;;1.50;;
8159;SDS011;27404;52.398;9.646;2023-11-19T04:09:45;3.67;;;2.00;;
8159;SDS011;27404;52.398;9.646;2023-11-19T04:12:11;2.20;;;1.50;;
8159;SDS011;27404;52.398;9.646;2023-11-19T04:14:37;3.33;;;2.00;;
8159;SDS011;27404;52.398;9.646;2023-11-19T04:17:03;1.97;;;1.57;;
8159;SDS011;27404;52.398;9.646;2023-11-19T04:19:28;2.17;;;1.80;;
8159;SDS011;27404;52.398;9.646;2023-11-19T04:21:54;3.27;;;2.00;;
8159;SDS011;27404;52.398;9.646;2023-11-19T04:24:19;3.67;;;2.90;;
8159;SDS011;27404;52.398;9.646;2023-11-19T04:26:45;3.47;;;1.93;;
8159;SDS011;27404;52.398;9.646;2023-11-19T04:29:15;4.57;;;2.33;;
8159;SDS011;27404;52.398;9.646;2023-11-19T04:31:44;4.10;;;2.60;;
8159;SDS011;27404;52.398;9.646;2023-11-19T04:34:10;4.00;;;2.27;;
8159;SDS011;27404;52.398;9.646;2023-11-19T04:36:36;4.47;;;2.77;;
8159;SDS011;27404;52.398;9.646;2023-11-19T04:39:02;4.70;;;3.40;;
8159;SDS011;27404;52.398;9.646;2023-11-19T04:41:50;4.43;;;3.40;;
8159;SDS011;27404;52.398;9.646;2023-11-19T04:44:19;9.67;;;3.80;;
8159;SDS011;27404;52.398;9.646;2023-11-19T04:46:45;5.97;;;3.53;;
8159;SDS011;27404;52.398;9.646;2023-11-19T04:49:11;5.43;;;3.57;;
8159;SDS011;27404;52.398;9.646;2023-11-19T04:51:42;6.93;;;4.13;;
8159;SDS011;27404;52.398;9.646;2023-11-19T04:54:08;13.70;;;5.67;;
8159;SDS011;27404;52.398;9.646;2023-11-19T04:56:38;9.37;;;5.80;;
8159;SDS011;27404;52.398;9.646;2023-11-19T04:59:04;10.17;;;6.57;;
8159;SDS011;27404;52.398;9.646;2023-11-19T05:01:34;11.07;;;7.13;;
8159;SDS011;27404;52.398;9.646;2023-11-19T05:04:00;12.40;;;7.30;;
8159;SDS011;27404;52.398;9.646;2023-11-19T05:06:30;13.47;;;8.07;;
8159;SDS011;27404;52.398;9.646;2023-11-19T05:08:57;11.07;;;8.80;;
8159;SDS011;27404;52.398;9.646;2023-11-19T05:11:26;16.20;;;9.20;;
8159;SDS011;27404;52.398;9.646;2023-11-19T05:13:53;14.00;;;8.80;;
8159;SDS011;27404;52.398;9.646;2023-11-19T05:16:19;17.30;;;9.73;;
8159;SDS011;27404;52.398;9.646;2023-11-19T05:18:46;17.07;;;9.27;;
8159;SDS011;27404;52.398;9.646;2023-11-19T05:21:11;26.53;;;11.33;;
8159;SDS011;27404;52.398;9.646;2023-11-19T05:23:37;18.20;;;10.20;;
8159;SDS011;27404;52.398;9.646;2023-11-19T05:26:03;16.93;;;9.53;;
8159;SDS011;27404;52.398;9.646;2023-11-19T05:28:28;15.60;;;9.67;;
8159;SDS011;27404;52.398;9.646;2023-11-19T05:30:54;17.03;;;9.77;;
8159;SDS011;27404;52.398;9.646;2023-11-19T05:33:20;14.37;;;9.57;;
8159;SDS011;27404;52.398;9.646;2023-11-19T05:35:46;18.73;;;9.43;;
8159;SDS011;27404;52.398;9.646;2023-11-19T05:38:11;17.27;;;9.50;;
8159;SDS011;27404;52.398;9.646;2023-11-19T05:40:36;16.77;;;9.17;;
8159;SDS011;27404;52.398;9.646;2023-11-19T05:43:03;14.53;;;9.10;;
8159;SDS011;27404;52.398;9.646;2023-11-19T05:45:30;14.77;;;8.47;;
8159;SDS011;27404;52.398;9.646;2023-11-19T05:47:56;17.00;;;8.50;;
8159;SDS011;27404;52.398;9.646;2023-11-19T05:50:22;14.70;;;9.20;;
8159;SDS011;27404;52.398;9.646;2023-11-19T05:52:47;20.73;;;8.87;;
8159;SDS011;27404;52.398;9.646;2023-11-19T05:55:12;17.00;;;8.70;;
8159;SDS011;27404;52.398;9.646;2023-11-19T05:57:39;19.53;;;9.10;;
8159;SDS011;27404;52.398;9.646;2023-11-19T06:00:05;21.97;;;9.93;;
8159;SDS011;27404;52.398;9.646;2023-11-19T06:02:33;16.77;;;8.63;;
8159;SDS011;27404;52.398;9.646;2023-11-19T06:04:59;19.83;;;9.57;;
8159;SDS011;27404;52.398;9.646;2023-11-19T06:07:25;13.13;;;8.77;;
8159;SDS011;27404;52.398;9.646;2023-11-19T06:09:51;19.03;;;8.67;;
8159;SDS011;27404;52.398;9.646;2023-11-19T06:12:17;12.10;;;7.33;;
8159;SDS011;27404;52.398;9.646;2023-11-19T06:14:42;16.90;;;7.47;;
8159;SDS011;27404;52.398;9.646;2023-11-19T06:17:08;14.87;;;7.60;;
8159;SDS011;27404;52.398;9.646;2023-11-19T06:19:35;17.87;;;7.97;;
8159;SDS011;27404;52.398;9.646;2023-11-19T06:22:01;14.27;;;8.10;;
8159;SDS011;27404;52.398;9.646;2023-11-19T06:24:26;18.80;;;7.80;;
8159;SDS011;27404;52.398;9.646;2023-11-19T06:26:52;17.67;;;7.87;;
8159;SDS011;27404;52.398;9.646;2023-11-19T06:29:17;16.13;;;8.07;;
8159;SDS011;27404;52.398;9.646;2023-11-19T06:31:44;20.23;;;7.10;;
8159;SDS011;27404;52.398;9.646;2023-11-19T06:34:11;13.93;;;6.80;;
8159;SDS011;27404;52.398;9.646;2023-11-19T06:36:37;19.03;;;7.67;;
8159;SDS011;27404;52.398;9.646;2023-11-19T06:39:03;17.37;;;6.60;;
8159;SDS011;27404;52.398;9.646;2023-11-19T06:41:29;16.07;;;6.33;;
8159;SDS011;27404;52.398;9.646;2023-11-19T06:43:54;13.33;;;6.20;;
8159;SDS011;27404;52.398;9.646;2023-11-19T06:46:20;20.07;;;6.27;;
8159;SDS011;27404;52.398;9.646;2023-11-19T06:48:45;16.70;;;5.60;;
8159;SDS011;27404;52.398;9.646;2023-11-19T06:51:11;22.20;;;6.13;;
8159;SDS011;27404;52.398;9.646;2023-11-19T06:53:37;18.73;;;5.50;;
8159;SDS011;27404;52.398;9.646;2023-11-19T06:56:05;25.40;;;6.63;;
8159;SDS011;27404;52.398;9.646;2023-11-19T06:58:35;16.97;;;5.13;;
8159;SDS011;27404;52.398;9.646;2023-11-19T07:01:01;14.87;;;5.17;;
8159;SDS011;27404;52.398;9.646;2023-11-19T07:03:26;19.17;;;5.30;;
8159;SDS011;27404;52.398;9.646;2023-11-19T07:05:52;14.90;;;4.80;;
8159;SDS011;27404;52.398;9.646;2023-11-19T07:08:17;15.53;;;5.00;;
8159;SDS011;27404;52.398;9.646;2023-11-19T07:10:43;13.63;;;4.60;;
8159;SDS011;27404;52.398;9.646;2023-11-19T07:13:08;18.63;;;6.03;;
8159;SDS011;27404;52.398;9.646;2023-11-19T07:15:34;16.63;;;4.77;;
8159;SDS011;27404;52.398;9.646;2023-11-19T07:17:59;13.93;;;4.50;;
8159;SDS011;27404;52.398;9.646;2023-11-19T07:20:25;15.63;;;4.90;;
8159;SDS011;27404;52.398;9.646;2023-11-19T07:22:51;18.33;;;4.57;;
8159;SDS011;27404;52.398;9.646;2023-11-19T07:25:17;13.27;;;4.53;;
8159;SDS011;27404;52.398;9.646;2023-11-19T07:27:43;17.37;;;4.37;;
8159;SDS011;27404;52.398;9.646;2023-11-19T07:30:08;20.07;;;4.33;;
8159;SDS011;27404;52.398;9.646;2023-11-19T07:32:34;25.47;;;3.67;;
8159;SDS011;27404;52.398;9.646;2023-11-19T07:34:59;22.03;;;3.90;;
8159;SDS011;27404;52.398;9.646;2023-11-19T07:37:25;13.37;;;3.90;;
8159;SDS011;27404;52.398;9.646;2023-11-19T07:39:51;22.57;;;4.70;;
8159;SDS011;27404;52.398;9.646;2023-11-19T07:42:16;21.63;;;4.97;;
8159;SDS011;27404;52.398;9.646;2023-11-19T07:44:43;21.27;;;3.97;;
8159;SDS011;27404;52.398;9.646;2023-11-19T07:47:08;21.30;;;3.60;;
8159;SDS011;27404;52.398;9.646;2023-11-19T07:49:34;19.93;;;3.93;;
8159;SDS011;27404;52.398;9.646;2023-11-19T07:52:00;21.27;;;4.37;;
8159;SDS011;27404;52.398;9.646;2023-11-19T07:54:25;16.80;;;4.13;;
8159;SDS011;27404;52.398;9.646;2023-11-19T07:56:51;20.20;;;5.53;;
8159;SDS011;27404;52.398;9.646;2023-11-19T07:59:16;18.83;;;3.47;;
8159;SDS011;27404;52.398;9.646;2023-11-19T08:01:41;21.13;;;3.93;;
8159;SDS011;27404;52.398;9.646;2023-11-19T08:04:07;20.10;;;4.70;;
8159;SDS011;27404;52.398;9.646;2023-11-19T08:06:32;21.90;;;4.27;;
8159;SDS011;27404;52.398;9.646;2023-11-19T08:08:58;17.33;;;3.93;;
8159;SDS011;27404;52.398;9.646;2023-11-19T08:11:24;24.17;;;3.80;;
8159;SDS011;27404;52.398;9.646;2023-11-19T08:13:50;24.20;;;4.57;;
8159;SDS011;27404;52.398;9.646;2023-11-19T08:16:15;20.10;;;3.83;;
8159;SDS011;27404;52.398;9.646;2023-11-19T08:18:41;18.97;;;3.77;;
8159;SDS011;27404;52.398;9.646;2023-11-19T08:21:08;18.60;;;3.40;;
8159;SDS011;27404;52.398;9.646;2023-11-19T08:23:34;21.10;;;4.27;;
8159;SDS011;27404;52.398;9.646;2023-11-19T08:26:00;21.83;;;4.60;;
8159;SDS011;27404;52.398;9.646;2023-11-19T08:28:26;18.80;;;4.10;;
8159;SDS011;27404;52.398;9.646;2023-11-19T08:30:52;30.00;;;4.33;;
8159;SDS011;27404;52.398;9.646;2023-11-19T08:33:18;18.90;;;4.37;;
8159;SDS011;27404;52.398;9.646;2023-11-19T08:35:43;21.77;;;5.77;;
8159;SDS011;27404;52.398;9.646;2023-11-19T08:38:10;24.90;;;4.10;;
8159;SDS011;27404;52.398;9.646;2023-11-19T08:40:35;19.33;;;3.70;;
8159;SDS011;27404;52.398;9.646;2023-11-19T08:43:01;23.10;;;4.43;;
8159;SDS011;27404;52.398;9.646;2023-11-19T08:45:26;20.83;;;4.83;;
8159;SDS011;27404;52.398;9.646;2023-11-19T08:47:52;30.47;;;4.03;;
8159;SDS011;27404;52.398;9.646;2023-11-19T08:50:17;19.37;;;4.87;;
8159;SDS011;27404;52.398;9.646;2023-11-19T08:52:43;22.50;;;5.17;;
8159;SDS011;27404;52.398;9.646;2023-11-19T08:55:08;22.33;;;4.57;;
8159;SDS011;27404;52.398;9.646;2023-11-19T08:57:34;22.43;;;4.70;;
8159;SDS011;27404;52.398;9.646;2023-11-19T09:00:00;21.07;;;4.83;;
8159;SDS011;27404;52.398;9.646;2023-11-19T09:02:26;28.93;;;4.57;;
8159;SDS011;27404;52.398;9.646;2023-11-19T09:04:51;14.13;;;3.67;;
8159;SDS011;27404;52.398;9.646;2023-11-19T09:07:17;21.83;;;4.50;;
8159;SDS011;27404;52.398;9.646;2023-11-19T09:09:42;20.90;;;4.47;;
8159;SDS011;27404;52.398;9.646;2023-11-19T09:12:08;24.47;;;5.03;;
8159;SDS011;27404;52.398;9.646;2023-11-19T09:14:33;26.70;;;4.83;;
8159;SDS011;27404;52.398;9.646;2023-11-19T09:16:59;20.60;;;3.70;;
8159;SDS011;27404;52.398;9.646;2023-11-19T09:19:25;22.17;;;4.33;;
8159;SDS011;27404;52.398;9.646;2023-11-19T09:21:53;17.67;;;4.57;;
8159;SDS011;27404;52.398;9.646;2023-11-19T09:24:19;21.67;;;5.00;;
8159;SDS011;27404;52.398;9.646;2023-11-19T09:26:44;23.60;;;4.60;;
8159;SDS011;27404;52.398;9.646;2023-11-19T09:29:10;28.50;;;4.97;;
8159;SDS011;27404;52.398;9.646;2023-11-19T09:31:39;21.67;;;4.37;;
8159;SDS011;27404;52.398;9.646;2023-11-19T09:34:05;24.47;;;4.67;;
8159;SDS011;27404;52.398;9.646;2023-11-19T09:36:31;23.07;;;4.30;;
8159;SDS011;27404;52.398;9.646;2023-11-19T09:38:56;23.53;;;4.60;;
8159;SDS011;27404;52.398;9.646;2023-11-19T09:41:22;28.93;;;5.00;;
8159;SDS011;27404;52.398;9.646;2023-11-19T09:43:49;22.63;;;4.90;;
8159;SDS011;27404;52.398;9.646;2023-11-19T09:46:15;23.07;;;3.80;;
8159;SDS011;27404;52.398;9.646;2023-11-19T09:48:41;26.00;;;4.73;;
8159;SDS011;27404;52.398;9.646;2023-11-19T09:51:08;26.40;;;4.37;;
8159;SDS011;27404;52.398;9.646;2023-11-19T09:53:35;20.40;;;4.17;;
8159;SDS011;27404;52.398;9.646;2023-11-19T09:56:02;25.53;;;4.53;;
8159;SDS011;27404;52.398;9.646;2023-11-19T09:58:31;20.77;;;4.37;;
8159;SDS011;27404;52.398;9.646;2023-11-19T10:01:00;26.73;;;5.53;;
8159;SDS011;27404;52.398;9.646;2023-11-19T10:03:32;36.10;;;4.97;;
8159;SDS011;27404;52.398;9.646;2023-11-19T10:06:00;23.80;;;4.53;;
8159;SDS011;27404;52.398;9.646;2023-11-19T10:08:27;25.57;;;3.90;;
8159;SDS011;27404;52.398;9.646;2023-11-19T10:10:53;28.03;;;5.37;;
8159;SDS011;27404;52.398;9.646;2023-11-19T10:13:18;33.87;;;6.40;;
8159;SDS011;27404;52.398;9.646;2023-11-19T10:15:44;28.07;;;4.23;;
8159;SDS011;27404;52.398;9.646;2023-11-19T10:18:10;25.07;;;4.37;;
8159;SDS011;27404;52.398;9.646;2023-11-19T10:20:35;23.53;;;4.03;;
8159;SDS011;27404;52.398;9.646;2023-11-19T10:23:02;20.90;;;4.50;;
8159;SDS011;27404;52.398;9.646;2023-11-19T10:25:28;25.37;;;4.30;;
8159;SDS011;27404;52.398;9.646;2023-11-19T10:27:54;16.50;;;3.53;;
8159;SDS011;27404;52.398;9.646;2023-11-19T10:30:21;23.20;;;4.67;;
8159;SDS011;27404;52.398;9.646;2023-11-19T10:35:32;21.37;;;4.10;;
8159;SDS011;27404;52.398;9.646;2023-11-19T10:37:59;16.70;;;3.73;;
8159;SDS011;27404;52.398;9.646;2023-11-19T10:40:38;20.23;;;3.87;;
8159;SDS011;27404;52.398;9.646;2023-11-19T10:43:07;18.73;;;3.60;;
8159;SDS011;27404;52.398;9.646;2023-11-19T10:45:33;16.73;;;3.93;;
8159;SDS011;27404;52.398;9.646;2023-11-19T10:48:01;21.67;;;4.13;;
8159;SDS011;27404;52.398;9.646;2023-11-19T10:50:31;22.03;;;3.93;;
8159;SDS011;27404;52.398;9.646;2023-11-19T10:52:57;13.90;;;3.70;;
8159;SDS011;27404;52.398;9.646;2023-11-19T10:55:29;24.33;;;4.20;;
8159;SDS011;27404;52.398;9.646;2023-11-19T10:57:58;16.63;;;4.47;;
8159;SDS011;27404;52.398;9.646;2023-11-19T11:00:25;26.03;;;4.33;;
8159;SDS011;27404;52.398;9.646;2023-11-19T11:02:54;20.83;;;4.73;;
8159;SDS011;27404;52.398;9.646;2023-11-19T11:05:25;20.37;;;4.63;;
8159;SDS011;27404;52.398;9.646;2023-11-19T11:07:52;18.57;;;4.07;;
8159;SDS011;27404;52.398;9.646;2023-11-19T11:10:22;20.60;;;4.27;;
8159;SDS011;27404;52.398;9.646;2023-11-19T11:12:51;19.10;;;4.33;;
8159;SDS011;27404;52.398;9.646;2023-11-19T11:15:32;21.07;;;4.83;;
8159;SDS011;27404;52.398;9.646;2023-11-19T11:18:01;23.80;;;4.60;;
8159;SDS011;27404;52.398;9.646;2023-11-19T11:20:30;21.53;;;5.30;;
8159;SDS011;27404;52.398;9.646;2023-11-19T11:31:48;25.37;;;4.50;;
8159;SDS011;27404;52.398;9.646;2023-11-19T11:37:18;21.93;;;4.63;;
8159;SDS011;27404;52.398;9.646;2023-11-19T11:39:46;21.97;;;4.50;;
8159;SDS011;27404;52.398;9.646;2023-11-19T11:55:28;27.40;;;3.90;;
8159;SDS011;27404;52.398;9.646;2023-11-19T11:58:00;24.03;;;5.17;;
8159;SDS011;27404;52.398;9.646;2023-11-19T12:00:32;22.67;;;4.23;;
8159;SDS011;27404;52.398;9.646;2023-11-19T12:03:02;28.30;;;6.63;;
8159;SDS011;27404;52.398;9.646;2023-11-19T12:05:29;19.60;;;4.67;;
8159;SDS011;27404;52.398;9.646;2023-11-19T12:08:02;24.00;;;4.67;;
8159;SDS011;27404;52.398;9.646;2023-11-19T12:10:30;21.17;;;4.33;;
8159;SDS011;27404;52.398;9.646;2023-11-19T12:13:00;34.10;;;5.50;;
8159;SDS011;27404;52.398;9.646;2023-11-19T12:15:26;21.63;;;4.93;;
8159;SDS011;27404;52.398;9.646;2023-11-19T12:17:53;20.40;;;4.33;;
8159;SDS011;27404;52.398;9.646;2023-11-19T12:20:20;30.77;;;5.30;;
8159;SDS011;27404;52.398;9.646;2023-11-19T12:22:48;28.00;;;5.17;;
8159;SDS011;27404;52.398;9.646;2023-11-19T12:25:14;21.70;;;4.40;;
8159;SDS011;27404;52.398;9.646;2023-11-19T12:27:50;20.00;;;3.77;;
8159;SDS011;27404;52.398;9.646;2023-11-19T12:30:17;17.30;;;3.93;;
8159;SDS011;27404;52.398;9.646;2023-11-19T12:32:49;26.43;;;4.60;;
8159;SDS011;27404;52.398;9.646;2023-11-19T12:35:16;22.23;;;3.90;;
8159;SDS011;27404;52.398;9.646;2023-11-19T12:37:45;18.77;;;4.03;;
8159;SDS011;27404;52.398;9.646;2023-11-19T12:40:15;22.87;;;4.50;;
8159;SDS011;27404;52.398;9.646;2023-11-19T12:42:42;21.57;;;4.10;;
8159;SDS011;27404;52.398;9.646;2023-11-19T12:45:08;16.17;;;3.77;;
8159;SDS011;27404;52.398;9.646;2023-11-19T12:47:36;25.63;;;4.33;;
8159;SDS011;27404;52.398;9.646;2023-11-19T12:50:02;26.50;;;5.10;;
8159;SDS011;27404;52.398;9.646;2023-11-19T12:52:29;25.20;;;5.50;;
8159;SDS011;27404;52.398;9.646;2023-11-19T12:54:55;18.77;;;3.87;;
8159;SDS011;27404;52.398;9.646;2023-11-19T12:57:20;18.30;;;3.83;;
8159;SDS011;27404;52.398;9.646;2023-11-19T12:59:55;17.73;;;4.20;;
8159;SDS011;27404;52.398;9.646;2023-11-19T13:02:24;20.97;;;4.03;;
8159;SDS011;27404;52.398;9.646;2023-11-19T13:05:26;21.30;;;3.80;;
8159;SDS011;27404;52.398;9.646;2023-11-19T13:08:06;20.30;;;3.90;;
8159;SDS011;27404;52.398;9.646;2023-11-19T13:10:54;19.67;;;3.97;;
8159;SDS011;27404;52.398;9.646;2023-11-19T13:13:19;18.33;;;3.33;;
8159;SDS011;27404;52.398;9.646;2023-11-19T13:15:44;17.00;;;4.07;;
8159;SDS011;27404;52.398;9.646;2023-11-19T13:18:11;20.97;;;3.77;;
8159;SDS011;27404;52.398;9.646;2023-11-19T13:20:36;21.97;;;4.23;;
8159;SDS011;27404;52.398;9.646;2023-11-19T13:23:03;20.50;;;4.40;;
8159;SDS011;27404;52.398;9.646;2023-11-19T13:25:30;20.27;;;3.60;;
8159;SDS011;27404;52.398;9.646;2023-11-19T13:27:57;24.47;;;3.77;;
8159;SDS011;27404;52.398;9.646;2023-11-19T13:30:23;17.87;;;3.50;;
8159;SDS011;27404;52.398;9.646;2023-11-19T13:32:49;18.27;;;3.40;;
8159;SDS011;27404;52.398;9.646;2023-11-19T13:35:15;20.43;;;4.77;;
8159;SDS011;27404;52.398;9.646;2023-11-19T13:37:45;20.93;;;4.70;;
8159;SDS011;27404;52.398;9.646;2023-11-19T13:40:11;19.77;;;4.17;;
8159;SDS011;27404;52.398;9.646;2023-11-19T13:42:40;22.43;;;4.20;;
8159;SDS011;27404;52.398;9.646;2023-11-19T13:45:10;18.87;;;4.00;;
8159;SDS011;27404;52.398;9.646;2023-11-19T13:47:40;21.30;;;3.60;;
8159;SDS011;27404;52.398;9.646;2023-11-19T13:50:13;19.67;;;4.23;;
8159;SDS011;27404;52.398;9.646;2023-11-19T13:52:40;22.73;;;4.57;;
8159;SDS011;27404;52.398;9.646;2023-11-19T13:55:07;21.37;;;4.57;;
8159;SDS011;27404;52.398;9.646;2023-11-19T13:57:34;15.43;;;3.70;;
8159;SDS011;27404;52.398;9.646;2023-11-19T14:00:01;19.97;;;4.03;;
8159;SDS011;27404;52.398;9.646;2023-11-19T14:02:49;18.30;;;4.27;;
8159;SDS011;27404;52.398;9.646;2023-11-19T14:05:15;19.70;;;4.13;;
8159;SDS011;27404;52.398;9.646;2023-11-19T14:07:44;24.67;;;4.43;;
8159;SDS011;27404;52.398;9.646;2023-11-19T14:10:13;22.10;;;4.57;;
8159;SDS011;27404;52.398;9.646;2023-11-19T14:12:39;15.30;;;3.60;;
8159;SDS011;27404;52.398;9.646;2023-11-19T14:15:08;20.40;;;4.57;;
8159;SDS011;27404;52.398;9.646;2023-11-19T14:17:37;20.00;;;3.70;;
8159;SDS011;27404;52.398;9.646;2023-11-19T14:20:02;22.33;;;4.00;;
8159;SDS011;27404;52.398;9.646;2023-11-19T14:22:48;19.47;;;4.10;;
8159;SDS011;27404;52.398;9.646;2023-11-19T14:25:15;23.97;;;4.47;;
8159;SDS011;27404;52.398;9.646;2023-11-19T14:27:41;17.30;;;4.17;;
8159;SDS011;27404;52.398;9.646;2023-11-19T14:30:10;14.33;;;3.27;;
8159;SDS011;27404;52.398;9.646;2023-11-19T14:32:39;17.87;;;4.13;;
8159;SDS011;27404;52.398;9.646;2023-11-19T14:35:08;15.23;;;3.50;;
8159;SDS011;27404;52.398;9.646;2023-11-19T14:37:34;21.47;;;4.60;;
8159;SDS011;27404;52.398;9.646;2023-11-19T14:39:59;16.27;;;4.07;;
8159;SDS011;27404;52.398;9.646;2023-11-19T14:42:33;19.93;;;4.90;;
8159;SDS011;27404;52.398;9.646;2023-11-19T14:44:59;22.77;;;4.40;;
8159;SDS011;27404;52.398;9.646;2023-11-19T14:47:24;12.93;;;3.00;;
8159;SDS011;27404;52.398;9.646;2023-11-19T14:49:50;15.17;;;2.70;;
8159;SDS011;27404;52.398;9.646;2023-11-19T14:52:15;14.17;;;3.57;;
8159;SDS011;27404;52.398;9.646;2023-11-19T14:54:41;19.47;;;3.07;;
8159;SDS011;27404;52.398;9.646;2023-11-19T14:57:07;18.90;;;3.50;;
8159;SDS011;27404;52.398;9.646;2023-11-19T14:59:36;16.17;;;3.10;;
8159;SDS011;27404;52.398;9.646;2023-11-19T15:02:02;16.93;;;3.60;;
8159;SDS011;27404;52.398;9.646;2023-11-19T15:04:28;17.13;;;3.57;;
8159;SDS011;27404;52.398;9.646;2023-11-19T15:06:57;19.57;;;4.53;;
8159;SDS011;27404;52.398;9.646;2023-11-19T15:09:24;16.93;;;4.23;;
8159;SDS011;27404;52.398;9.646;2023-11-19T15:11:50;18.33;;;4.53;;
8159;SDS011;27404;52.398;9.646;2023-11-19T15:14:16;24.13;;;4.50;;
8159;SDS011;27404;52.398;9.646;2023-11-19T15:16:42;20.37;;;3.67;;
8159;SDS011;27404;52.398;9.646;2023-11-19T15:19:08;25.97;;;4.43;;
8159;SDS011;27404;52.398;9.646;2023-11-19T15:21:33;21.97;;;4.20;;